Time;durP1;ratioP1;P1;durP2;ratioP2;P2;SDS_P1;SDS_P2;PMS_P1;PMS_P2;Temp;Humidity;BMP_temperature;BMP_pressure;BME280_temperature;BME280_humidity;BME280_pressure;Samples;Min_cycle;Max_cycle;Signal;HPM_P1;HPM_P2
2022/06/23 00:02:20;;;;;;;4.28;2.10;;;;;;;22.70;60.08;99721.38;5114440;28;20564;-77
2022/06/23 00:04:50;;;;;;;4.35;1.95;;;;;;;22.60;60.80;99717.38;5114050;28;20204;-79
2022/06/23 00:07:24;;;;;;;8.05;2.00;;;;;;;22.36;61.03;99684.00;5113796;28;20206;-78
2022/06/23 00:09:52;;;;;;;7.72;1.85;;;;;;;22.33;62.28;99692.00;5114149;28;20202;-78
2022/06/23 00:12:25;;;;;;;6.50;1.73;;;;;;;22.45;62.10;99714.44;5114340;28;20210;-78
2022/06/23 00:14:55;;;;;;;3.90;1.90;;;;;;;22.32;62.85;99713.22;5114054;28;20204;-78
2022/06/23 00:17:34;;;;;;;5.47;2.40;;;;;;;22.41;63.45;99720.78;5114342;28;20216;-78
2022/06/23 00:20:06;;;;;;;5.53;1.70;;;;;;;22.44;63.77;99713.59;5113738;28;20630;-78
2022/06/23 00:22:34;;;;;;;4.70;2.28;;;;;;;22.32;64.85;99723.78;5113403;28;20225;-78
2022/06/23 00:25:04;;;;;;;2.38;1.65;;;;;;;22.34;64.66;99727.22;5113072;28;20194;-78
2022/06/23 00:27:34;;;;;;;4.35;1.80;;;;;;;22.29;65.70;99723.91;5112916;28;20690;-77
2022/06/23 00:30:04;;;;;;;2.95;2.10;;;;;;;22.24;64.57;99717.03;5113677;28;20212;-78
2022/06/23 00:32:31;;;;;;;7.13;2.10;;;;;;;22.11;64.30;99702.56;5113282;28;20213;-78
2022/06/23 00:35:00;;;;;;;7.35;2.00;;;;;;;22.24;64.12;99726.72;5113381;28;20201;-77
2022/06/23 00:37:30;;;;;;;6.45;2.05;;;;;;;22.11;64.89;99710.50;5112259;28;20202;-78
2022/06/23 00:39:59;;;;;;;6.22;1.83;;;;;;;22.17;66.29;99726.09;5093009;28;20201;-77
2022/06/23 00:42:28;;;;;;;3.60;1.88;;;;;;;22.14;65.77;99726.22;5057699;28;20226;-77
2022/06/23 00:45:01;;;;;;;5.25;2.92;;;;;;;22.13;64.70;99721.84;5104910;28;20201;-77
2022/06/23 00:47:35;;;;;;;4.38;1.98;;;;;;;22.12;64.95;99733.31;5113318;28;20208;-78
2022/06/23 00:50:16;;;;;;;2.28;2.03;;;;;;;22.15;64.45;99732.38;5078409;28;20201;-77
2022/06/23 00:52:48;;;;;;;4.20;2.20;;;;;;;22.09;66.20;99733.44;5112985;28;20233;-78
2022/06/23 00:55:37;;;;;;;1.88;1.38;;;;;;;22.16;66.24;99734.94;5113292;28;20197;-78
2022/06/23 00:58:08;;;;;;;7.38;1.95;;;;;;;22.02;67.84;99739.00;5111893;28;20204;-78
2022/06/23 01:00:38;;;;;;;9.82;1.80;;;;;;;22.01;67.31;99727.56;5112566;28;20201;-77
2022/06/23 01:03:17;;;;;;;4.40;1.75;;;;;;;22.02;67.15;99731.06;5112847;28;20225;-77
2022/06/23 01:05:50;;;;;;;8.60;1.90;;;;;;;21.80;68.32;99725.69;5076732;28;20201;-77
2022/06/23 01:08:28;;;;;;;2.30;1.85;;;;;;;21.87;67.12;99724.53;5113141;28;20190;-78
2022/06/23 01:11:01;;;;;;;7.93;2.30;;;;;;;21.70;66.52;99703.19;5112896;28;20193;-77
2022/06/23 01:13:35;;;;;;;2.42;1.98;;;;;;;21.61;67.96;99693.84;5112821;28;20198;-77
2022/06/23 01:16:08;;;;;;;6.03;1.80;;;;;;;21.72;69.86;99693.47;5113161;28;20288;-78
2022/06/23 01:18:40;;;;;;;4.93;1.95;;;;;;;21.63;70.33;99704.34;5113038;28;20203;-78
2022/06/23 01:21:13;;;;;;;5.63;1.80;;;;;;;21.80;68.86;99714.25;5112829;28;20212;-78
2022/06/23 01:24:09;;;;;;;3.85;1.90;;;;;;;21.85;68.37;99701.78;5112401;28;20225;-78
2022/06/23 01:26:56;;;;;;;2.55;2.10;;;;;;;21.63;69.03;99686.72;5049844;28;20249;-78
2022/06/23 01:29:31;;;;;;;7.85;2.10;;;;;;;21.74;68.65;99707.44;5049491;28;20207;-77
2022/06/23 01:32:09;;;;;;;8.30;2.08;;;;;;;21.75;69.21;99702.13;5050003;28;20201;-78
2022/06/23 01:34:44;;;;;;;5.10;2.15;;;;;;;21.81;69.54;99705.44;5049615;28;20192;-77
2022/06/23 01:37:18;;;;;;;5.75;1.90;;;;;;;21.71;68.85;99679.41;5048644;28;20203;-77
2022/06/23 01:39:49;;;;;;;5.32;2.20;;;;;;;21.80;69.47;99699.28;5029747;28;20196;-78
2022/06/23 01:42:23;;;;;;;5.40;2.25;;;;;;;21.76;71.34;99713.53;5029240;28;20243;-77
2022/06/23 01:44:57;;;;;;;5.45;2.10;;;;;;;21.82;72.69;99717.72;5036184;28;20253;-79
2022/06/23 01:47:33;;;;;;;6.30;2.40;;;;;;;21.79;72.46;99717.84;5049462;28;20218;-78
2022/06/23 01:50:22;;;;;;;8.23;2.17;;;;;;;21.88;72.52;99721.00;5046301;28;20199;-78
2022/06/23 01:53:10;;;;;;;9.52;2.60;;;;;;;21.88;72.15;99713.09;5032838;28;20757;-79
2022/06/23 01:56:05;;;;;;;6.80;2.40;;;;;;;21.78;71.62;99711.69;5049693;28;20259;-77
2022/06/23 01:58:42;;;;;;;7.38;2.40;;;;;;;21.64;72.80;99708.69;5034347;28;20198;-77
2022/06/23 02:01:18;;;;;;;11.55;3.47;;;;;;;21.59;72.96;99710.63;5049200;28;20195;-77
2022/06/23 02:03:51;;;;;;;5.22;2.90;;;;;;;21.54;73.73;99716.09;5069746;28;20216;-77
2022/06/23 02:06:25;;;;;;;4.03;2.72;;;;;;;21.60;75.07;99696.53;5091894;28;20202;-79
2022/06/23 02:09:00;;;;;;;9.88;3.10;;;;;;;21.66;75.36;99694.53;5091861;28;20194;-78
2022/06/23 02:11:33;;;;;;;14.13;3.65;;;;;;;21.46;77.87;99701.44;5091758;28;20198;-78
2022/06/23 02:14:08;;;;;;;12.48;4.03;;;;;;;21.56;77.45;99702.84;5107970;28;20198;-77
2022/06/23 02:16:43;;;;;;;11.98;3.80;;;;;;;21.69;77.17;99712.03;5111100;28;20314;-79
2022/06/23 02:19:18;;;;;;;10.60;3.72;;;;;;;21.34;78.63;99689.53;5112026;28;20188;-79
2022/06/23 02:21:49;;;;;;;8.05;3.75;;;;;;;21.64;77.54;99712.22;5111315;28;20204;-78
2022/06/23 02:24:24;;;;;;;6.30;3.17;;;;;;;21.83;75.86;99720.28;5111824;28;20228;-75
2022/06/23 02:27:02;;;;;;;10.65;3.40;;;;;;;21.92;74.13;99730.56;5111806;28;20196;-78
2022/06/23 02:29:36;;;;;;;11.45;3.17;;;;;;;21.93;74.61;99736.72;5110920;28;20285;-78
2022/06/23 02:32:15;;;;;;;15.70;3.40;;;;;;;21.90;72.50;99729.78;5093090;28;20189;-78
2022/06/23 02:34:48;;;;;;;12.02;3.58;;;;;;;21.81;73.39;99716.88;5112077;28;20197;-79
2022/06/23 02:37:51;;;;;;;7.22;2.78;;;;;;;21.78;73.98;99716.97;5112144;28;20672;-77
2022/06/23 02:40:23;;;;;;;9.90;2.63;;;;;;;21.31;74.68;99678.22;5112205;28;20201;-78
2022/06/23 02:42:54;;;;;;;9.55;2.90;;;;;;;21.38;74.38;99698.19;5111710;28;20697;-78
2022/06/23 02:45:46;;;;;;;5.82;2.63;;;;;;;21.55;74.02;99701.09;5112291;28;20673;-78
2022/06/23 02:48:31;;;;;;;7.47;2.60;;;;;;;21.55;73.91;99711.66;5112211;28;20197;-79
2022/06/23 02:51:11;;;;;;;4.65;2.40;;;;;;;21.68;72.55;99718.22;5112599;28;20638;-78
2022/06/23 02:54:06;;;;;;;2.95;2.25;;;;;;;21.70;69.81;99724.31;5112040;28;20240;-78
2022/06/23 02:56:51;;;;;;;12.75;2.20;;;;;;;21.61;71.27;99722.88;5110732;28;20209;-79
2022/06/23 02:59:31;;;;;;;1.98;1.88;;;;;;;21.63;70.89;99712.25;5080554;28;20204;-78
2022/06/23 03:02:02;;;;;;;6.15;2.20;;;;;;;21.61;68.58;99692.97;5116088;28;20201;-78
2022/06/23 03:04:38;;;;;;;12.52;2.38;;;;;;;21.70;68.30;99703.19;5115312;28;20224;-78
2022/06/23 03:07:12;;;;;;;4.55;1.80;;;;;;;21.66;68.27;99678.69;5116055;28;20692;-77
2022/06/23 03:09:43;;;;;;;3.30;2.10;;;;;;;21.96;67.99;99699.63;5115744;28;20193;-78
2022/06/23 03:12:15;;;;;;;4.55;1.80;;;;;;;22.34;66.96;99679.66;5114947;28;20197;-78
2022/06/23 03:14:49;;;;;;;9.23;2.75;;;;;;;23.06;62.86;99705.81;5114669;28;20966;-77
2022/06/23 03:17:21;;;;;;;6.13;2.22;;;;;;;23.56;60.60;99682.50;5114756;28;20193;-79
2022/06/23 03:20:00;;;;;;;4.85;2.10;;;;;;;24.51;57.30;99721.38;5114841;28;20595;-76
2022/06/23 03:22:32;;;;;;;11.90;3.33;;;;;;;24.86;56.68;99712.63;5115783;28;20205;-78
2022/06/23 03:25:06;;;;;;;12.40;4.57;;;;;;;25.11;56.63;99728.19;5114250;28;20202;-77
2022/06/23 03:27:42;;;;;;;11.98;3.60;;;;;;;25.57;54.62;99732.91;5095779;28;20201;-78
2022/06/23 03:30:20;;;;;;;14.38;4.35;;;;;;;26.39;53.51;99730.31;5115027;28;20262;-77
2022/06/23 03:32:52;;;;;;;7.28;3.00;;;;;;;26.72;50.40;99714.25;5114701;28;20207;-77
2022/06/23 03:35:24;;;;;;;8.43;2.83;;;;;;;27.23;49.68;99753.84;5095062;28;20203;-78
2022/06/23 03:38:00;;;;;;;6.97;2.95;;;;;;;27.45;48.29;99748.16;5095283;28;20205;-77
2022/06/23 03:43:25;;;;;;;3.78;1.88;;;;;;;28.39;46.09;99739.69;5114010;28;20223;-77
2022/06/23 03:45:56;;;;;;;13.07;2.47;;;;;;;28.68;44.82;99744.00;5114245;28;20691;-76
2022/06/23 03:48:31;;;;;;;6.47;2.88;;;;;;;28.86;44.03;99742.81;5114443;28;20209;-76
2022/06/23 03:51:04;;;;;;;10.90;3.22;;;;;;;28.56;45.24;99734.13;5113881;28;20206;-76
2022/06/23 03:53:35;;;;;;;6.15;3.63;;;;;;;27.98;46.77;99737.75;5112562;28;20607;-77
2022/06/23 03:56:06;;;;;;;13.95;3.75;;;;;;;27.59;47.84;99748.19;5113465;28;20198;-77
2022/06/23 03:58:41;;;;;;;17.10;4.00;;;;;;;27.36;48.59;99738.03;5112067;28;20198;-76
2022/06/23 04:01:17;;;;;;;7.75;3.13;;;;;;;27.33;48.17;99730.19;5112721;28;20227;-78
2022/06/23 04:03:48;;;;;;;8.23;3.40;;;;;;;27.36;48.43;99748.69;5111788;28;20731;-76
2022/06/23 04:06:23;;;;;;;9.23;3.60;;;;;;;26.71;48.79;99747.13;5112701;28;20200;-76
2022/06/23 04:08:59;;;;;;;8.25;3.08;;;;;;;25.98;50.16;99741.34;5114028;28;20295;-76
2022/06/23 04:11:45;;;;;;;7.03;3.53;;;;;;;25.55;49.86;99707.34;5113831;28;20200;-76
2022/06/23 04:14:29;;;;;;;16.73;5.38;;;;;;;25.62;51.26;99754.75;5112386;28;20216;-74
2022/06/23 04:17:08;;;;;;;15.15;5.03;;;;;;;25.43;51.11;99743.34;5113755;28;20205;-74
2022/06/23 04:19:36;;;;;;;18.83;7.03;;;;;;;25.28;52.22;99741.47;5092038;28;20206;-76
2022/06/23 04:22:11;;;;;;;18.75;8.32;;;;;;;25.04;54.53;99759.44;5109765;28;20674;-75
2022/06/23 04:24:44;;;;;;;19.95;7.68;;;;;;;25.14;56.55;99771.34;5112369;28;20227;-76
2022/06/23 04:27:17;;;;;;;24.17;8.90;;;;;;;25.51;55.97;99769.50;5111059;28;20198;-76
2022/06/23 04:29:45;;;;;;;22.23;8.35;;;;;;;26.13;54.67;99769.75;5075652;28;20243;-74
2022/06/23 04:32:16;;;;;;;22.00;8.48;;;;;;;26.80;55.39;99771.38;5113224;28;20193;-75
2022/06/23 04:34:50;;;;;;;22.75;8.68;;;;;;;27.51;53.03;99779.75;5113033;28;20258;-75
2022/06/23 04:37:29;;;;;;;21.55;8.63;;;;;;;28.82;50.81;99773.38;5092441;28;20186;-75
2022/06/23 04:40:06;;;;;;;22.92;8.02;;;;;;;29.15;48.16;99767.59;5112749;28;20212;-75
2022/06/23 04:42:34;;;;;;;16.17;8.07;;;;;;;30.18;46.38;99791.78;5111108;28;20200;-75
2022/06/23 04:45:40;;;;;;;26.40;7.18;;;;;;;31.17;45.74;99798.88;5112815;28;20217;-75
2022/06/23 04:48:17;;;;;;;13.40;6.30;;;;;;;30.55;47.08;99798.06;5069528;28;20190;-74
2022/06/23 04:50:48;;;;;;;24.00;7.85;;;;;;;31.46;47.41;99833.22;5067406;28;20240;-74
2022/06/23 04:53:27;;;;;;;27.67;8.18;;;;;;;32.00;45.40;99813.91;5069880;28;20245;-75
2022/06/23 04:56:11;;;;;;;20.48;6.90;;;;;;;33.21;43.95;99814.91;5020342;28;20198;-73
2022/06/23 04:58:44;;;;;;;21.77;5.43;;;;;;;32.84;43.55;99797.41;5070104;28;20198;-74
2022/06/23 05:01:16;;;;;;;17.75;6.03;;;;;;;32.66;44.93;99812.31;5036050;28;20198;-73
2022/06/23 05:03:49;;;;;;;14.73;6.57;;;;;;;31.93;45.11;99786.72;5069394;28;20232;-75
2022/06/23 05:06:26;;;;;;;23.35;7.53;;;;;;;31.07;46.79;99820.13;5067418;28;20666;-74
2022/06/23 05:09:00;;;;;;;29.60;8.02;;;;;;;30.12;49.00;99808.25;5067204;28;20664;-75
2022/06/23 05:11:30;;;;;;;18.20;7.72;;;;;;;29.92;50.73;99812.31;5069253;28;20186;-74
2022/06/23 05:14:01;;;;;;;26.20;6.82;;;;;;;29.54;51.71;99820.22;5069501;28;20654;-75
2022/06/23 05:16:31;;;;;;;25.50;9.20;;;;;;;28.53;53.54;99825.03;5069275;28;20658;-74
2022/06/23 05:19:01;;;;;;;19.33;8.13;;;;;;;28.55;55.12;99829.31;5069296;28;20199;-74
2022/06/23 05:21:31;;;;;;;22.95;8.88;;;;;;;28.28;57.04;99835.50;5067747;28;20202;-74
2022/06/23 05:24:05;;;;;;;33.63;8.07;;;;;;;28.52;56.77;99834.84;5056233;28;20230;-74
2022/06/23 05:26:39;;;;;;;33.05;8.52;;;;;;;28.39;56.60;99838.38;5098534;28;20193;-76
2022/06/23 05:29:15;;;;;;;28.00;8.80;;;;;;;28.11;58.43;99857.84;5106821;28;20577;-72
2022/06/23 05:31:42;;;;;;;27.33;8.00;;;;;;;27.51;60.06;99851.66;5102987;28;20209;-74
2022/06/23 05:34:14;;;;;;;28.75;7.28;;;;;;;26.70;65.11;99863.31;5111694;28;20605;-75
2022/06/23 05:36:50;;;;;;;19.30;7.43;;;;;;;26.27;70.53;99862.09;5111695;28;20205;-75
2022/06/23 05:39:23;;;;;;;15.07;6.22;;;;;;;26.31;69.99;99870.75;5063886;28;20703;-74
2022/06/23 05:41:54;;;;;;;14.43;6.57;;;;;;;26.00;72.90;99863.50;5111677;28;20614;-74
2022/06/23 05:44:27;;;;;;;20.75;6.78;;;;;;;25.92;74.59;99882.50;5108341;28;20225;-75
2022/06/23 05:46:58;;;;;;;14.27;6.47;;;;;;;25.84;77.18;99891.78;5111813;28;20688;-74
2022/06/23 05:49:30;;;;;;;23.25;5.95;;;;;;;25.84;77.05;99895.31;5107559;28;20198;-73
2022/06/23 05:52:00;;;;;;;17.60;6.05;;;;;;;25.65;78.52;99903.31;5099509;28;20204;-76
2022/06/23 05:54:33;;;;;;;22.70;5.63;;;;;;;25.86;79.82;99909.38;5098032;28;20194;-74
2022/06/23 05:57:12;;;;;;;13.13;5.50;;;;;;;25.80;79.81;99920.31;5096481;28;20592;-74
2022/06/23 05:59:55;;;;;;;20.17;5.18;;;;;;;25.87;78.12;99915.53;5091341;28;20217;-75
2022/06/23 06:02:28;;;;;;;14.18;5.57;;;;;;;26.11;77.93;99916.97;5105626;28;20220;-75
2022/06/23 06:04:58;;;;;;;13.73;5.00;;;;;;;26.13;77.83;99925.72;5106152;28;20236;-74
2022/06/23 06:07:33;;;;;;;10.73;4.60;;;;;;;26.76;74.48;99934.78;5111477;28;20688;-75
2022/06/23 06:10:03;;;;;;;14.82;4.97;;;;;;;27.00;73.22;99932.66;5111622;28;20215;-75
2022/06/23 06:12:34;;;;;;;8.48;4.63;;;;;;;27.50;68.24;99932.53;5110908;28;20201;-74
2022/06/23 06:15:06;;;;;;;13.88;4.97;;;;;;;26.99;69.74;99941.59;5106352;28;20696;-74
2022/06/23 06:17:35;;;;;;;21.67;5.57;;;;;;;26.47;67.76;99938.16;5104553;28;20262;-75
2022/06/23 06:20:06;;;;;;;20.23;5.25;;;;;;;26.23;70.75;99868.50;5111089;28;20194;-79
2022/06/23 06:22:47;;;;;;;20.00;5.68;;;;;;;26.70;72.20;99945.78;5074089;28;20198;-74
2022/06/23 06:25:23;;;;;;;13.82;5.40;;;;;;;26.95;70.67;99951.53;5101063;28;20213;-74
2022/06/23 06:27:50;;;;;;;25.13;7.10;;;;;;;26.55;75.91;99935.94;5111130;28;20757;-73
2022/06/23 06:30:20;;;;;;;25.55;7.95;;;;;;;26.67;75.22;99945.94;5113270;28;20573;-75
2022/06/23 06:32:48;;;;;;;32.10;9.40;;;;;;;26.43;72.16;99955.22;5115171;28;20205;-75
2022/06/23 06:35:24;;;;;;;24.92;9.15;;;;;;;26.06;68.62;99937.59;5114952;28;20704;-74
2022/06/23 06:37:54;;;;;;;28.05;10.48;;;;;;;26.54;65.05;99947.53;5115101;28;20301;-74
2022/06/23 06:40:23;;;;;;;27.88;7.65;;;;;;;26.32;61.61;99945.13;5115016;28;20665;-74
2022/06/23 06:42:53;;;;;;;35.20;11.43;;;;;;;26.38;64.28;99934.19;5114939;28;20201;-74
2022/06/23 06:45:23;;;;;;;23.05;9.43;;;;;;;26.57;66.26;99928.75;5114658;28;20225;-75
2022/06/23 06:47:50;;;;;;;14.45;6.75;;;;;;;26.66;68.11;99927.38;5114923;28;20228;-74
2022/06/23 06:50:28;;;;;;;9.90;4.40;;;;;;;27.31;66.27;99927.34;5114664;28;20222;-73
2022/06/23 06:52:57;;;;;;;7.25;3.67;;;;;;;27.65;58.28;99915.66;5114594;28;20233;-73
2022/06/23 06:55:30;;;;;;;3.38;2.95;;;;;;;27.82;54.87;99909.38;5114460;28;20209;-73
2022/06/23 06:58:03;;;;;;;6.88;2.88;;;;;;;28.21;53.35;99919.50;5114778;28;20201;-74
2022/06/23 07:00:35;;;;;;;5.80;3.22;;;;;;;27.98;52.03;99912.81;5114442;28;20228;-74
2022/06/23 07:03:06;;;;;;;3.75;2.70;;;;;;;27.33;57.51;99897.94;5114524;28;20680;-74
2022/06/23 07:05:40;;;;;;;6.22;3.65;;;;;;;27.35;52.53;99891.63;5114302;28;20224;-76
2022/06/23 07:08:14;;;;;;;6.93;3.03;;;;;;;27.85;55.54;99880.72;5114564;28;20200;-74
2022/06/23 07:10:45;;;;;;;5.35;3.50;;;;;;;28.20;54.92;99877.78;5114112;28;20790;-74
2022/06/23 07:13:18;;;;;;;3.97;3.08;;;;;;;28.30;51.91;99865.59;5114353;28;20205;-73
2022/06/23 07:15:52;;;;;;;7.95;2.28;;;;;;;28.20;52.22;99848.44;5095011;28;20208;-74
2022/06/23 07:18:23;;;;;;;3.60;2.20;;;;;;;28.01;50.87;99798.88;5114239;28;20197;-74
2022/06/23 07:20:55;;;;;;;2.60;1.90;;;;;;;27.91;49.44;99800.38;5114270;28;20234;-74
2022/06/23 07:23:26;;;;;;;2.97;2.00;;;;;;;27.75;51.02;99802.28;5114536;28;20209;-74
2022/06/23 07:25:58;;;;;;;2.38;2.17;;;;;;;28.09;50.28;99787.78;5077856;28;20221;-74
2022/06/23 07:28:36;;;;;;;7.00;2.28;;;;;;;28.43;47.02;99791.88;5114414;28;20193;-74
2022/06/23 07:31:11;;;;;;;3.65;2.38;;;;;;;28.19;48.78;99774.72;5113862;28;20556;-75
2022/06/23 07:33:43;;;;;;;2.10;2.00;;;;;;;28.16;48.15;99780.25;5114093;28;20205;-75
2022/06/23 07:36:16;;;;;;;5.80;3.15;;;;;;;29.02;48.75;99764.03;5114358;28;20661;-77
2022/06/23 07:38:48;;;;;;;3.83;2.00;;;;;;;28.61;46.92;99741.84;5114447;28;20201;-74
2022/06/23 07:41:21;;;;;;;2.28;1.88;;;;;;;27.86;46.92;99733.16;5112699;28;20208;-74
2022/06/23 07:43:53;;;;;;;2.00;1.90;;;;;;;27.54;48.77;99736.94;5113587;28;20205;-74
2022/06/23 07:46:19;;;;;;;2.65;1.95;;;;;;;27.84;45.48;99726.22;5077855;28;20227;-74
2022/06/23 07:48:46;;;;;;;2.50;1.90;;;;;;;28.34;44.67;99723.09;5113556;28;20665;-76
2022/06/23 07:51:15;;;;;;;6.25;2.20;;;;;;;28.16;45.43;99713.59;5113564;28;20198;-75
2022/06/23 07:53:44;;;;;;;4.10;1.98;;;;;;;28.27;44.76;99722.63;5113921;28;20229;-76
2022/06/23 07:56:14;;;;;;;6.45;1.77;;;;;;;28.34;44.58;99699.97;5113915;28;20224;-74
2022/06/23 07:58:44;;;;;;;2.85;2.00;;;;;;;27.73;44.64;99721.56;5113391;28;20205;-74
2022/06/23 08:01:17;;;;;;;2.30;1.60;;;;;;;28.81;45.02;99736.94;5113351;28;20712;-77
2022/06/23 08:03:52;;;;;;;7.55;1.63;;;;;;;28.44;44.34;99745.56;5065299;28;20209;-75
2022/06/23 08:06:21;;;;;;;8.27;1.60;;;;;;;28.84;44.63;99760.75;5094854;28;20585;-75
2022/06/23 08:08:51;;;;;;;4.82;1.55;;;;;;;28.01;44.99;99764.22;5113396;28;20205;-75
2022/06/23 08:14:10;;;;;;;2.45;1.85;;;;;;;27.40;43.42;99779.47;5098510;28;20562;-74
2022/06/23 08:16:50;;;;;;;5.53;1.77;;;;;;;27.42;44.87;99766.94;5098288;27;20289;-75
2022/06/23 08:19:28;;;;;;;3.15;1.70;;;;;;;27.42;44.46;99788.25;5075159;28;20190;-75
2022/06/23 08:22:02;;;;;;;4.05;1.63;;;;;;;26.76;45.40;99785.81;5097711;28;20201;-75
2022/06/23 08:24:32;;;;;;;3.08;1.60;;;;;;;26.97;44.44;99789.94;5110650;28;20232;-75
2022/06/23 08:27:01;;;;;;;1.23;1.17;;;;;;;26.68;45.17;99788.06;5077655;28;20213;-75
2022/06/23 08:29:35;;;;;;;4.20;1.90;;;;;;;26.44;45.50;99714.94;5112593;28;20201;-75
2022/06/23 08:32:02;;;;;;;8.45;1.50;;;;;;;26.65;45.34;99798.84;5112501;28;20201;-74
2022/06/23 08:34:31;;;;;;;5.57;1.95;;;;;;;26.82;46.62;99793.50;5112408;28;20205;-76
2022/06/23 08:37:06;;;;;;;3.55;1.83;;;;;;;26.81;45.60;99805.03;5112306;28;20202;-75
2022/06/23 08:39:41;;;;;;;4.15;1.88;;;;;;;26.43;45.68;99820.44;5113079;28;20204;-74
2022/06/23 08:42:18;;;;;;;1.70;1.60;;;;;;;25.98;45.99;99821.06;5112655;28;20589;-75
2022/06/23 08:44:54;;;;;;;2.20;2.00;;;;;;;25.88;46.95;99843.72;5112787;28;20229;-75
2022/06/23 08:47:26;;;;;;;1.98;1.77;;;;;;;26.06;47.62;99848.09;5112359;28;20208;-75
2022/06/23 08:49:59;;;;;;;3.08;1.70;;;;;;;26.17;46.36;99849.34;5112693;28;20208;-75
2022/06/23 08:52:31;;;;;;;5.18;1.80;;;;;;;26.12;46.52;99849.56;5112158;28;20234;-75
2022/06/23 08:55:04;;;;;;;1.70;1.60;;;;;;;26.23;46.54;99854.34;5111741;28;20553;-75
2022/06/23 08:57:36;;;;;;;23.73;2.03;;;;;;;26.27;46.33;99850.59;5112583;28;20209;-75
2022/06/23 09:00:11;;;;;;;5.15;1.67;;;;;;;26.29;46.37;99849.56;5067182;28;20210;-75
2022/06/23 09:02:44;;;;;;;3.45;1.80;;;;;;;26.52;47.25;99845.69;5099307;28;20201;-75
2022/06/23 09:05:19;;;;;;;3.88;2.00;;;;;;;26.50;46.12;99842.25;5078172;28;20225;-75
2022/06/23 09:07:56;;;;;;;2.47;2.10;;;;;;;26.72;46.91;99839.28;5112078;28;20193;-76
2022/06/23 09:10:33;;;;;;;3.92;2.45;;;;;;;26.93;47.32;99833.66;5112525;28;20675;-75
2022/06/23 09:13:10;;;;;;;3.80;2.28;;;;;;;27.16;46.77;99794.22;5091482;28;20197;-74
2022/06/23 09:16:20;;;;;;;2.30;1.77;;;;;;;27.65;45.94;99837.56;5111849;28;20201;-74
2022/06/23 09:19:08;;;;;;;1.88;1.70;;;;;;;28.07;44.40;99837.69;5042529;28;20210;-74
2022/06/23 09:22:02;;;;;;;2.13;2.03;;;;;;;28.33;43.89;99822.72;5040302;28;21007;-75
2022/06/23 09:25:01;;;;;;;15.30;2.08;;;;;;;27.97;43.22;99837.31;5029718;28;20564;-75
2022/06/23 09:27:43;;;;;;;4.82;2.00;;;;;;;27.96;44.13;99824.97;4989614;28;20202;-75
2022/06/23 09:30:18;;;;;;;1.83;1.65;;;;;;;27.98;44.86;99833.72;4977025;28;20200;-75
2022/06/23 09:32:57;;;;;;;8.00;1.95;;;;;;;27.86;45.21;99831.78;5009368;28;20618;-75
2022/06/23 09:35:51;;;;;;;1.90;1.60;;;;;;;27.89;44.34;99834.28;5009157;28;20196;-75
2022/06/23 09:38:57;;;;;;;4.10;1.55;;;;;;;28.04;43.44;99830.66;5009353;28;20212;-75
2022/06/23 09:41:54;;;;;;;4.45;1.55;;;;;;;27.89;42.57;99826.28;5009154;28;20212;-75
2022/06/23 09:44:49;;;;;;;2.90;2.03;;;;;;;27.90;42.11;99821.78;4998047;28;20209;-76
2022/06/23 09:47:40;;;;;;;2.63;1.77;;;;;;;27.60;43.20;99755.22;5008862;28;20236;-75
2022/06/23 09:50:40;;;;;;;2.38;1.60;;;;;;;27.33;42.95;99820.72;5009037;28;20204;-75
2022/06/23 09:53:22;;;;;;;1.80;1.70;;;;;;;27.37;43.95;99824.94;4950972;28;20246;-76
2022/06/23 09:56:11;;;;;;;7.15;1.77;;;;;;;27.34;44.70;99830.44;5009401;28;20266;-76
2022/06/23 09:58:53;;;;;;;4.28;1.70;;;;;;;27.62;45.25;99835.91;5008865;28;20208;-76
2022/06/23 10:01:32;;;;;;;2.58;1.58;;;;;;;27.34;45.83;99825.13;5009045;28;20205;-76
2022/06/23 10:04:12;;;;;;;7.57;2.30;;;;;;;27.54;45.80;99841.69;5016364;28;20211;-75
2022/06/23 10:06:59;;;;;;;3.25;2.13;;;;;;;27.24;46.11;99826.59;5048552;28;20218;-76
2022/06/23 10:09:44;;;;;;;2.40;2.10;;;;;;;27.06;47.41;99842.69;5003224;28;20624;-74
2022/06/23 10:12:30;;;;;;;5.30;2.10;;;;;;;27.13;47.04;99858.28;5048590;28;20207;-76
2022/06/23 10:15:13;;;;;;;7.72;2.42;;;;;;;26.96;47.11;99864.56;5021119;28;20214;-77
2022/06/23 10:18:11;;;;;;;7.93;2.33;;;;;;;27.17;47.96;99859.84;5048558;28;20215;-76
2022/06/23 10:20:49;;;;;;;4.95;2.40;;;;;;;27.32;48.07;99864.31;4970156;28;20209;-76
2022/06/23 10:23:43;;;;;;;2.45;2.25;;;;;;;27.20;48.96;99849.88;4970036;28;20210;-76
2022/06/23 10:26:41;;;;;;;5.57;2.50;;;;;;;27.21;50.68;99859.59;4912327;29;20224;-75
2022/06/23 10:29:37;;;;;;;9.52;2.97;;;;;;;26.82;53.56;99853.81;4918665;28;20200;-76
2022/06/23 10:32:22;;;;;;;6.13;2.70;;;;;;;26.66;56.33;99827.16;4969645;28;20198;-76
2022/06/23 10:35:12;;;;;;;9.57;2.78;;;;;;;26.91;57.01;99877.25;4969483;28;20207;-76
2022/06/23 10:38:27;;;;;;;8.95;3.33;;;;;;;26.50;60.25;99858.22;4969208;28;20198;-76
2022/06/23 10:41:21;;;;;;;8.80;3.95;;;;;;;26.67;59.72;99839.53;4969462;28;20249;-76
2022/06/23 10:44:18;;;;;;;4.75;3.28;;;;;;;26.85;57.68;99867.84;4967292;28;20206;-76
2022/06/23 10:46:50;;;;;;;4.78;2.55;;;;;;;26.18;57.67;99795.28;4912312;29;20236;-76
2022/06/23 10:49:51;;;;;;;7.32;3.10;;;;;;;26.80;56.41;99866.31;4912145;29;20688;-77
2022/06/23 10:52:33;;;;;;;7.20;2.92;;;;;;;27.08;55.75;99867.38;4893123;29;20609;-79
2022/06/23 10:55:23;;;;;;;5.18;2.90;;;;;;;26.69;57.13;99871.34;4893724;29;20208;-76
2022/06/23 10:58:25;;;;;;;6.50;3.05;;;;;;;26.58;58.00;99871.94;4929858;29;20289;-77
2022/06/23 11:01:03;;;;;;;4.00;3.72;;;;;;;26.90;58.88;99876.41;4893664;29;20208;-77
2022/06/23 11:03:49;;;;;;;5.13;3.53;;;;;;;27.33;58.26;99871.31;4935214;28;20579;-76
2022/06/23 11:06:32;;;;;;;6.22;4.32;;;;;;;27.30;58.88;99861.72;4969550;28;20770;-77
2022/06/23 11:09:26;;;;;;;6.10;3.60;;;;;;;26.86;61.92;99871.34;4969563;28;20224;-77
2022/06/23 11:12:10;;;;;;;6.18;2.40;;;;;;;26.53;65.05;99868.69;4969387;28;20706;-77
2022/06/23 11:14:50;;;;;;;4.85;3.35;;;;;;;26.46;67.14;99875.28;4969595;28;20213;-77
2022/06/23 11:17:29;;;;;;;9.68;4.95;;;;;;;26.60;67.22;99875.41;4972869;28;20198;-77
2022/06/23 11:20:12;;;;;;;8.80;4.05;;;;;;;26.63;68.28;99864.59;4972799;28;20306;-77
2022/06/23 11:22:46;;;;;;;7.18;3.78;;;;;;;27.48;63.70;99865.16;4993509;28;20212;-76
2022/06/23 11:25:27;;;;;;;5.95;3.22;;;;;;;26.85;63.66;99851.00;5011758;28;20196;-76
2022/06/23 11:28:05;;;;;;;6.20;4.00;;;;;;;27.40;61.82;99860.22;5012332;28;20623;-76
2022/06/23 11:30:46;;;;;;;6.53;3.40;;;;;;;27.90;61.92;99867.97;5071851;28;20234;-77
2022/06/23 11:33:35;;;;;;;7.43;3.67;;;;;;;27.96;60.89;99848.09;5071682;28;20272;-76
2022/06/23 11:36:13;;;;;;;4.82;3.72;;;;;;;27.94;62.38;99879.31;5071674;28;20195;-77
2022/06/23 11:38:59;;;;;;;7.30;3.65;;;;;;;28.08;62.51;99872.22;5108572;28;20197;-77
2022/06/23 11:41:46;;;;;;;4.22;3.03;;;;;;;28.67;56.14;99865.06;5114565;27;20193;-77
2022/06/23 11:44:26;;;;;;;3.75;3.15;;;;;;;28.64;53.09;99875.06;5114441;27;20205;-76
2022/06/23 11:46:59;;;;;;;6.15;3.30;;;;;;;28.27;52.76;99845.31;5113665;28;20229;-78
2022/06/23 11:49:40;;;;;;;8.02;3.47;;;;;;;28.26;52.12;99877.41;5114678;28;20201;-76
2022/06/23 11:52:31;;;;;;;6.47;2.80;;;;;;;28.30;52.14;99881.59;5114073;28;20201;-78
2022/06/23 11:55:16;;;;;;;3.47;2.85;;;;;;;27.98;53.70;99879.03;5026901;28;20201;-77
2022/06/23 11:58:18;;;;;;;3.22;2.92;;;;;;;28.85;52.13;99877.25;5026350;28;20196;-75
2022/06/23 12:01:02;;;;;;;6.00;3.08;;;;;;;28.76;51.23;99877.81;4982068;28;20268;-78
2022/06/23 12:03:44;;;;;;;4.57;2.92;;;;;;;29.20;51.41;99875.00;4974892;28;20701;-78
2022/06/23 12:06:20;;;;;;;3.40;2.72;;;;;;;29.36;49.74;99874.91;4970085;28;20222;-77
2022/06/23 12:08:57;;;;;;;3.65;3.10;;;;;;;29.29;51.27;99860.19;4974889;28;20213;-76
2022/06/23 12:11:26;;;;;;;8.43;3.00;;;;;;;28.88;51.24;99854.84;4970330;28;20203;-76
2022/06/23 12:13:54;;;;;;;2.38;2.17;;;;;;;28.58;48.91;99870.94;4973377;28;20488;-79
2022/06/23 12:16:23;;;;;;;5.72;2.70;;;;;;;28.22;51.64;99870.56;4973645;28;20773;-75
2022/06/23 12:18:54;;;;;;;16.30;5.57;;;;;;;27.98;53.94;99871.03;4969321;28;20203;-74
2022/06/23 12:21:32;;;;;;;5.47;2.70;;;;;;;28.17;53.47;99865.50;4970180;28;20915;-75
2022/06/23 12:24:07;;;;;;;4.90;2.67;;;;;;;28.00;52.86;99869.13;4974460;28;20221;-74